Latest Weather Observations for Jabiru

IDD60801

Issued at 6:05 pm CST Saturday 2 August 2014 (issued every 30 minutes, with the page automatically refreshed every 10 minutes)

About weather observations | Map of weather stations | Latest weather observations for NT | Other Formats
Station Details ID: 014198 Name: JABIRU AIRPORT Lat: -12.66 Lon: 132.89 Height: 26.5 m
Data from the previous 72 hours. | See also: Recent months at Jabiru
Date/Time
CST
Temp
°C
App
Temp
°C
Dew
Point
Rel
Hum
%
Delta-T
°C
Wind Press
QNH
hPa
Press
MSL
hPa
Rain
since 9 am
mm
Dir
 
Spd
km/h
Gust
km/h
Spd
kts
Gust
kts
02/06:00pm 30.4 30.1 16.4 43 8.8 E 13 24 7 13 1012.0 1011.8 0.0
02/05:30pm 31.0 30.2 16.2 41 9.3 E 15 24 8 13 1011.8 1011.6 0.0
02/05:00pm 31.5 30.8 15.5 38 9.9 E 13 19 7 10 1011.6 - 0.0
02/04:30pm 32.9 31.6 15.8 35 10.7 E 17 26 9 14 1011.3 1011.1 0.0
02/04:00pm 32.1 29.8 15.6 37 10.3 ENE 22 35 12 19 1011.2 - 0.0
02/03:30pm 32.6 30.8 16.0 36 10.4 E 20 26 11 14 1011.4 1011.2 0.0
02/03:00pm 32.2 30.3 15.7 37 10.3 E 20 32 11 17 1011.7 1011.5 0.0
02/02:30pm 32.0 29.3 15.5 37 10.3 ENE 24 33 13 18 1012.0 1011.8 0.0
02/02:00pm 32.7 29.6 15.7 36 10.6 ENE 26 35 14 19 1012.3 - 0.0
02/01:30pm 33.2 30.9 15.7 35 10.9 E 22 37 12 20 1012.8 1012.6 0.0
02/01:00pm 32.5 29.2 15.1 35 10.8 E 26 37 14 20 1013.2 - 0.0
02/12:30pm 31.8 27.9 14.4 34 10.6 E 28 41 15 22 1013.9 1013.7 0.0
02/12:00pm 31.8 28.1 14.0 34 10.8 E 26 39 14 21 1014.4 1014.2 0.0
02/11:30am 31.7 27.6 13.9 34 10.8 E 28 43 15 23 1014.9 1014.7 0.0
02/11:00am 30.7 26.6 13.9 36 10.1 E 28 41 15 22 1015.4 - 0.0
02/10:30am 30.0 26.4 15.3 41 9.0 E 28 37 15 20 1015.9 1015.7 0.0
02/10:00am 29.1 26.8 16.6 46 7.8 E 24 35 13 19 1016.1 - 0.0
02/09:30am 27.6 27.0 17.5 54 6.4 E 17 24 9 13 1016.2 1016.0 0.0
02/09:00am 25.8 26.8 17.7 61 5.1 E 9 13 5 7 1016.2 1016.0 0.0
02/08:30am 25.0 26.7 18.0 65 4.4 ESE 6 9 3 5 1015.9 1015.7 0.0
02/08:00am 22.0 24.7 17.8 77 2.6 CALM 0 0 0 0 1015.5 - 0.0
02/07:30am 20.5 23.1 17.5 83 1.8 CALM 0 0 0 0 1015.2 1015.0 0.0
02/07:00am 20.4 22.9 17.2 82 2.0 CALM 0 0 0 0 1014.9 - 0.0
02/06:30am 20.8 22.3 17.6 82 2.0 S 6 7 3 4 1014.7 1014.5 0.0
02/06:00am 20.8 23.1 17.6 82 2.0 S 2 6 1 3 1014.3 1014.1 0.0
02/05:30am 21.4 24.2 18.0 81 2.1 CALM 0 6 0 3 1014.0 1013.8 0.0
02/05:00am 20.8 22.2 17.4 81 2.1 S 6 7 3 4 1014.0 - 0.0
02/04:30am 21.4 24.1 17.8 80 2.2 CALM 0 0 0 0 1013.7 1013.5 0.0
02/04:00am 21.4 24.0 17.4 78 2.5 CALM 0 0 0 0 1013.8 - 0.0
02/03:30am 22.1 23.6 18.1 78 2.5 S 7 11 4 6 1013.8 1013.6 0.0
02/03:00am 22.2 24.1 17.6 75 2.8 SW 4 6 2 3 1013.9 1013.7 0.0
02/02:30am 22.7 24.4 18.0 75 2.9 SW 6 6 3 3 1014.1 1013.9 0.0
02/02:00am 22.6 24.0 17.9 75 2.9 SSW 7 9 4 5 1014.3 - 0.0
02/01:30am 23.1 25.9 18.0 73 3.2 CALM 0 0 0 0 1014.4 1014.2 0.0
02/01:00am 23.9 26.8 18.3 71 3.5 CALM 0 0 0 0 1014.2 - 0.0
02/12:30am 23.7 26.5 17.9 70 3.6 CALM 0 4 0 2 1014.4 1014.2 0.0
02/12:00am 24.4 26.6 18.3 69 3.8 NW 4 6 2 3 1014.5 1014.3 0.0
 
Date/Time
CST
Temp
°C
App
Temp
°C
Dew
Point
Rel
Hum
%
Delta-T
°C
Wind Press
QNH
hPa
Press
MSL
hPa
Rain
since 9 am
mm
Dir
 
Spd
km/h
Gust
km/h
Spd
kts
Gust
kts
01/11:30pm 24.5 26.3 18.2 68 4.0 N 6 7 3 4 1014.3 1014.1 0.0
01/11:00pm 25.1 26.6 18.1 65 4.4 NNW 7 9 4 5 1014.1 - 0.0
01/10:30pm 25.6 26.8 18.3 64 4.6 NNW 9 13 5 7 1013.7 1013.5 0.0
01/10:00pm 26.1 27.8 18.5 63 4.8 WNW 7 11 4 6 1013.6 - 0.0
01/09:30pm 26.6 27.9 18.5 61 5.2 NNW 9 13 5 7 1013.5 1013.3 0.0
01/09:00pm 27.2 28.9 18.5 59 5.6 NNW 7 9 4 5 1013.2 1013.0 0.0
01/08:30pm 27.9 29.1 18.3 56 6.1 NNW 9 13 5 7 1012.8 1012.6 0.0
01/08:00pm 28.6 29.1 15.5 45 8.0 NNW 7 11 4 6 1012.4 - 0.0
01/07:30pm 29.7 30.1 14.7 40 9.1 NE 6 7 3 4 1011.8 1011.6 0.0
01/07:00pm 30.6 30.6 14.2 36 9.9 NE 7 9 4 5 1011.3 - 0.0
01/06:30pm 31.9 31.7 13.6 32 11.1 ENE 7 11 4 6 1011.1 1010.9 0.0
01/06:00pm 33.4 32.8 13.5 30 12.1 E 9 11 5 6 1010.7 1010.5 0.0
01/05:30pm 34.3 32.8 13.2 28 12.8 E 13 19 7 10 1010.6 1010.4 0.0
01/05:00pm 34.2 32.7 13.1 28 12.8 ESE 13 20 7 11 1010.5 - 0.0
01/04:30pm 34.4 32.6 13.3 28 12.8 E 15 20 8 11 1010.3 1010.1 0.0
01/04:00pm 34.1 32.6 13.0 28 12.7 E 13 20 7 11 1010.2 - 0.0
01/03:30pm 34.1 32.6 13.0 28 12.7 E 13 22 7 12 1010.4 1010.2 0.0
01/03:00pm 34.1 32.2 13.0 28 12.7 ENE 15 20 8 11 1010.8 1010.6 0.0
01/02:30pm 33.8 33.3 13.8 30 12.2 NE 9 20 5 11 1011.3 1011.1 0.0
01/02:00pm 34.2 32.5 13.6 29 12.5 ENE 15 30 8 16 1011.9 - 0.0
01/01:30pm 33.0 31.3 14.6 33 11.3 E 17 28 9 15 1012.8 1012.6 0.0
01/01:00pm 32.5 30.9 15.1 35 10.8 E 17 26 9 14 1013.3 - 0.0
01/12:30pm 32.4 31.3 16.3 38 10.1 E 17 26 9 14 1013.9 1013.7 0.0
01/12:00pm 31.2 31.0 16.8 42 9.1 ENE 13 28 7 15 1014.4 1014.2 0.0
01/11:30am 30.1 30.1 17.2 46 8.2 E 13 20 7 11 1014.9 1014.7 0.0
01/11:00am 29.2 29.5 18.0 51 7.1 E 13 20 7 11 1015.4 - 0.0
01/10:30am 28.4 29.3 18.5 55 6.3 E 11 20 6 11 1015.8 1015.6 0.0
01/10:00am 27.3 29.2 18.9 60 5.4 E 7 13 4 7 1015.9 - 0.0
01/09:30am 26.7 28.3 19.1 63 4.9 E 9 17 5 9 1016.1 1015.9 0.0
01/09:00am 25.6 27.5 19.0 67 4.2 E 7 11 4 6 1016.0 1015.8 -
01/08:30am 25.1 27.8 19.5 71 3.6 NE 4 9 2 5 1015.9 1015.7 -
01/08:00am 23.1 25.4 19.5 80 2.3 WSW 6 7 3 4 1015.6 - -
01/07:30am 21.4 23.3 18.6 84 1.8 W 6 6 3 3 1015.3 1015.1 -
01/07:00am 20.9 23.0 18.1 84 1.7 W 4 7 2 4 1015.0 - -
01/06:30am 21.3 24.2 18.3 83 1.9 CALM 0 0 0 0 1014.5 1014.3 -
01/06:00am 21.2 23.0 18.2 83 1.9 SSW 6 7 3 4 1014.3 1014.1 -
01/05:30am 21.4 23.1 18.0 81 2.1 SSW 6 9 3 5 1014.2 1014.0 -
01/05:00am 21.4 23.8 18.0 81 2.1 SSW 2 9 1 5 1014.0 - -
01/04:30am 21.6 24.5 18.2 81 2.1 CALM 0 0 0 0 1013.8 1013.6 -
01/04:00am 22.0 24.5 18.2 79 2.4 N 2 6 1 3 1013.8 - -
01/03:30am 22.2 23.6 17.8 76 2.7 NNW 7 7 4 4 1013.9 1013.7 -
01/03:00am 22.9 25.5 17.6 72 3.3 CALM 0 0 0 0 1014.0 1013.8 0.0
01/02:30am 23.3 26.0 17.7 71 3.5 CALM 0 0 0 0 1014.1 1013.9 -
01/02:00am 23.9 25.5 17.9 69 3.8 NNE 6 7 3 4 1014.3 - -
01/01:30am 23.3 26.1 18.0 72 3.3 CALM 0 0 0 0 1014.2 1014.0 -
01/01:00am 23.4 26.0 17.4 69 3.7 CALM 0 0 0 0 1014.1 - -
01/12:30am 24.5 27.2 17.7 66 4.3 CALM 0 0 0 0 1014.0 1013.8 -
01/12:00am 24.8 27.5 17.8 65 4.4 CALM 0 0 0 0 1013.7 1013.5 -
 
Date/Time
CST
Temp
°C
App
Temp
°C
Dew
Point
Rel
Hum
%
Delta-T
°C
Wind Press
QNH
hPa
Press
MSL
hPa
Rain
since 9 am
mm
Dir
 
Spd
km/h
Gust
km/h
Spd
kts
Gust
kts
31/11:30pm 25.0 26.9 17.7 64 4.6 NE 4 7 2 4 1013.6 1013.4 -
31/11:00pm 25.3 26.8 17.5 62 4.9 NNE 6 7 3 4 1013.6 - -
31/10:30pm 25.9 27.5 17.8 61 5.1 NE 6 7 3 4 1013.6 1013.4 -
31/10:00pm 25.8 27.5 18.0 62 4.9 N 6 9 3 5 1013.4 - -
31/09:30pm 26.3 27.5 18.2 61 5.1 NNW 9 11 5 6 1013.4 1013.2 -
31/09:00pm 26.8 27.6 17.3 56 6.0 NNW 9 13 5 7 1013.3 1013.1 -
31/08:30pm 28.3 28.4 14.5 43 8.3 NW 7 9 4 5 1013.0 1012.8 -
31/08:00pm 28.7 28.8 14.5 42 8.6 NNE 7 7 4 4 1012.5 - -
31/07:30pm 29.6 29.3 13.4 37 9.7 NNE 7 9 4 5 1012.1 1011.9 -
31/07:00pm 30.2 29.8 13.0 34 10.2 N 7 9 4 5 1011.8 - -
31/06:30pm 31.3 30.8 12.6 31 11.1 NE 7 7 4 4 1011.6 1011.4 -
31/06:00pm 32.6 31.8 12.8 30 11.8 NE 9 11 5 6 1011.5 1011.3 -
31/05:30pm 33.2 31.6 11.7 27 12.7 ENE 11 15 6 8 1011.3 1011.1 -
31/05:00pm 33.5 31.3 10.8 25 13.2 E 13 17 7 9 1011.1 - -
31/04:30pm 33.7 32.3 10.9 25 13.3 ESE 9 15 5 8 1010.9 1010.7 0.0
31/04:00pm 33.9 32.4 10.5 24 13.6 SE 9 13 5 7 1011.0 - 0.0
31/03:30pm 33.4 31.2 10.7 25 13.2 E 13 22 7 12 1011.1 1010.9 0.0
31/03:00pm 33.5 30.4 10.2 24 13.4 ENE 17 24 9 13 1011.6 1011.4 0.0
31/02:30pm 33.8 31.1 10.4 24 13.6 E 15 26 8 14 1012.1 1011.9 0.0
31/02:00pm 33.0 30.8 10.9 26 12.9 E 13 24 7 13 1012.7 - 0.0
31/01:30pm 33.3 30.8 11.2 26 12.9 E 15 22 8 12 1013.2 1013.0 0.0
31/01:00pm 32.3 29.8 10.9 27 12.4 E 15 22 8 12 1013.7 - 0.0
31/12:30pm 31.6 29.3 11.9 30 11.6 E 15 22 8 12 1014.3 1014.1 0.0
31/12:00pm 31.4 27.8 11.7 29 11.5 ENE 22 30 12 16 1014.8 1014.6 0.0
31/11:30am 30.8 27.5 11.7 31 11.1 ENE 20 30 11 16 1015.1 1014.9 0.0
31/11:00am 30.1 27.7 12.5 34 10.4 E 17 22 9 12 1015.7 - 0.0
31/10:30am 28.8 28.0 13.9 40 8.9 ESE 11 20 6 11 1016.1 1015.9 0.0
31/10:00am 27.1 27.2 16.4 52 6.6 SE 11 19 6 10 1016.2 - 0.0
31/09:30am 26.5 27.1 16.7 55 6.1 ESE 9 13 5 7 1016.3 1016.1 0.0
31/09:00am 25.2 26.6 17.4 62 4.9 SSE 6 9 3 5 1016.2 1016.0 0.0
31/08:30am 23.1 24.9 18.2 74 3.1 SSW 6 7 3 4 1016.1 1015.9 0.0
31/08:00am 22.4 25.4 18.4 78 2.5 CALM 0 0 0 0 1015.9 - 0.0
31/07:30am 21.1 23.9 17.9 82 2.0 CALM 0 6 0 3 1015.8 1015.6 0.0
31/07:00am 20.7 22.2 17.7 83 1.9 E 6 7 3 4 1015.4 - 0.0
31/06:30am 21.0 22.5 18.0 83 1.9 E 7 9 4 5 1015.2 1015.0 0.0
31/06:00am 21.2 22.9 18.4 84 1.7 E 7 9 4 5 1015.1 1014.9 0.0
31/05:30am 21.3 22.8 18.1 82 2.0 E 7 9 4 5 1015.0 1014.8 0.0
31/05:00am 21.7 23.1 17.9 79 2.4 E 7 9 4 5 1014.8 - 0.0
31/04:30am 21.9 23.3 17.9 78 2.5 E 7 9 4 5 1014.6 1014.4 0.0
31/04:00am 22.3 23.4 18.1 77 2.6 E 9 11 5 6 1014.6 - 0.0
31/03:30am 22.3 23.4 17.9 76 2.7 E 9 13 5 7 1014.6 1014.4 0.0
31/03:00am 22.5 24.8 17.6 74 3.0 ENE 2 9 1 5 1014.6 1014.4 0.0
31/02:30am 22.9 25.5 17.6 72 3.3 CALM 0 6 0 3 1014.6 1014.4 0.0
31/02:00am 22.7 25.0 16.7 69 3.7 CALM 0 0 0 0 1014.7 - 0.0
31/01:30am 23.2 24.3 16.7 67 4.0 N 6 6 3 3 1014.7 1014.5 0.0
31/01:00am 23.8 25.1 17.1 66 4.1 NE 6 9 3 5 1014.9 - 0.0
31/12:30am 24.2 26.3 17.2 65 4.3 N 2 7 1 4 1014.8 1014.6 0.0
31/12:00am 24.2 25.1 16.7 63 4.6 NW 7 9 4 5 1014.8 1014.6 0.0
 
Date/Time
CST
Temp
°C
App
Temp
°C
Dew
Point
Rel
Hum
%
Delta-T
°C
Wind Press
QNH
hPa
Press
MSL
hPa
Rain
since 9 am
mm
Dir
 
Spd
km/h
Gust
km/h
Spd
kts
Gust
kts
30/11:30pm 24.5 25.1 15.4 57 5.5 E 6 9 3 5 1014.7 1014.5 0.0
30/11:00pm 24.4 24.9 15.6 58 5.3 E 7 9 4 5 1014.9 - 0.0
30/10:30pm 25.0 25.1 15.6 56 5.7 E 9 9 5 5 1015.0 1014.8 0.0
30/10:00pm 25.8 26.1 14.9 51 6.6 ESE 7 9 4 5 1014.9 - 0.0
30/09:30pm 26.3 26.6 15.0 49 6.8 ESE 7 9 4 5 1014.7 1014.5 0.0
30/09:00pm 26.3 26.6 15.0 49 6.8 ESE 7 9 4 5 1014.5 1014.3 0.0
30/08:30pm 27.1 27.3 14.8 47 7.4 E 7 7 4 4 1014.4 1014.2 0.0
30/08:00pm 27.6 28.1 14.9 45 7.7 E 6 7 3 4 1013.9 - 0.0
30/07:30pm 28.2 28.4 14.8 44 8.1 E 7 9 4 5 1013.5 1013.3 0.0
30/07:00pm 29.2 29.0 14.6 41 8.9 E 9 13 5 7 1013.1 - 0.0
30/06:30pm 30.1 29.7 14.2 38 9.6 E 9 13 5 7 1012.7 1012.5 0.0

Other Formats:

Comma delimited format used in spreadsheet applications
http://www.bom.gov.au/fwo/IDD60801/IDD60801.94137.axf

JavaScript Object Notation format (JSON) in row-major order
http://www.bom.gov.au/fwo/IDD60801/IDD60801.94137.json